sensor_id;sensor_type;location;lat;lon;timestamp;temperature;humidity
19892;DHT22;10108;50.142;8.724;2023-09-07T00:00:16;18.80;99.90
19892;DHT22;10108;50.142;8.724;2023-09-07T00:02:42;18.80;99.90
19892;DHT22;10108;50.142;8.724;2023-09-07T00:05:09;18.80;99.90
19892;DHT22;10108;50.142;8.724;2023-09-07T00:07:36;18.70;99.90
19892;DHT22;10108;50.142;8.724;2023-09-07T00:10:03;18.70;99.90
19892;DHT22;10108;50.142;8.724;2023-09-07T00:12:29;18.70;99.90
19892;DHT22;10108;50.142;8.724;2023-09-07T00:14:55;18.70;99.90
19892;DHT22;10108;50.142;8.724;2023-09-07T00:17:23;18.70;99.90
19892;DHT22;10108;50.142;8.724;2023-09-07T00:19:49;18.60;99.90
19892;DHT22;10108;50.142;8.724;2023-09-07T00:22:17;18.60;99.90
19892;DHT22;10108;50.142;8.724;2023-09-07T00:24:44;18.60;99.90
19892;DHT22;10108;50.142;8.724;2023-09-07T00:27:10;18.60;99.90
19892;DHT22;10108;50.142;8.724;2023-09-07T00:29:38;18.60;99.90
19892;DHT22;10108;50.142;8.724;2023-09-07T00:32:05;18.60;99.90
19892;DHT22;10108;50.142;8.724;2023-09-07T00:34:31;18.50;99.90
19892;DHT22;10108;50.142;8.724;2023-09-07T00:36:57;18.50;99.90
19892;DHT22;10108;50.142;8.724;2023-09-07T00:39:24;18.50;99.90
19892;DHT22;10108;50.142;8.724;2023-09-07T00:41:50;18.50;99.90
19892;DHT22;10108;50.142;8.724;2023-09-07T00:44:16;18.50;99.90
19892;DHT22;10108;50.142;8.724;2023-09-07T00:46:42;18.50;99.90
19892;DHT22;10108;50.142;8.724;2023-09-07T00:49:12;18.50;99.90
19892;DHT22;10108;50.142;8.724;2023-09-07T00:51:38;18.50;99.90
19892;DHT22;10108;50.142;8.724;2023-09-07T00:54:04;18.40;99.90
19892;DHT22;10108;50.142;8.724;2023-09-07T00:56:31;18.40;99.90
19892;DHT22;10108;50.142;8.724;2023-09-07T00:58:59;18.40;99.90
19892;DHT22;10108;50.142;8.724;2023-09-07T01:01:26;18.40;99.90
19892;DHT22;10108;50.142;8.724;2023-09-07T01:03:52;18.40;99.90
19892;DHT22;10108;50.142;8.724;2023-09-07T01:06:25;18.40;99.90
19892;DHT22;10108;50.142;8.724;2023-09-07T01:08:55;18.40;99.90
19892;DHT22;10108;50.142;8.724;2023-09-07T01:11:24;18.40;99.90
19892;DHT22;10108;50.142;8.724;2023-09-07T01:13:51;18.30;99.90
19892;DHT22;10108;50.142;8.724;2023-09-07T01:16:20;18.30;99.90
19892;DHT22;10108;50.142;8.724;2023-09-07T01:18:47;18.30;99.90
19892;DHT22;10108;50.142;8.724;2023-09-07T01:21:14;18.30;99.90
19892;DHT22;10108;50.142;8.724;2023-09-07T01:23:42;18.30;99.90
19892;DHT22;10108;50.142;8.724;2023-09-07T01:26:09;18.30;99.90
19892;DHT22;10108;50.142;8.724;2023-09-07T01:28:36;18.30;99.90
19892;DHT22;10108;50.142;8.724;2023-09-07T01:31:05;18.30;99.90
19892;DHT22;10108;50.142;8.724;2023-09-07T01:33:32;18.20;99.90
19892;DHT22;10108;50.142;8.724;2023-09-07T01:35:58;18.20;99.90
19892;DHT22;10108;50.142;8.724;2023-09-07T01:38:25;18.20;99.90
19892;DHT22;10108;50.142;8.724;2023-09-07T01:40:51;18.20;99.90
19892;DHT22;10108;50.142;8.724;2023-09-07T01:43:17;18.20;99.90
19892;DHT22;10108;50.142;8.724;2023-09-07T01:45:43;18.20;99.90
19892;DHT22;10108;50.142;8.724;2023-09-07T01:48:13;18.20;99.90
19892;DHT22;10108;50.142;8.724;2023-09-07T01:50:39;18.20;99.90
19892;DHT22;10108;50.142;8.724;2023-09-07T01:53:05;18.20;99.90
19892;DHT22;10108;50.142;8.724;2023-09-07T01:55:32;18.20;99.90
19892;DHT22;10108;50.142;8.724;2023-09-07T01:57:59;18.20;99.90
19892;DHT22;10108;50.142;8.724;2023-09-07T02:00:26;18.20;99.90
19892;DHT22;10108;50.142;8.724;2023-09-07T02:02:52;18.20;99.90
19892;DHT22;10108;50.142;8.724;2023-09-07T02:05:18;18.20;99.90
19892;DHT22;10108;50.142;8.724;2023-09-07T02:07:44;18.20;99.90
19892;DHT22;10108;50.142;8.724;2023-09-07T02:10:10;18.20;99.90
19892;DHT22;10108;50.142;8.724;2023-09-07T02:12:37;18.10;99.90
19892;DHT22;10108;50.142;8.724;2023-09-07T02:15:04;18.10;99.90
19892;DHT22;10108;50.142;8.724;2023-09-07T02:17:31;18.10;99.90
19892;DHT22;10108;50.142;8.724;2023-09-07T02:19:58;18.10;99.90
19892;DHT22;10108;50.142;8.724;2023-09-07T02:22:25;18.10;99.90
19892;DHT22;10108;50.142;8.724;2023-09-07T02:24:52;18.10;99.90
19892;DHT22;10108;50.142;8.724;2023-09-07T02:27:18;18.10;99.90
19892;DHT22;10108;50.142;8.724;2023-09-07T02:29:44;18.10;99.90
19892;DHT22;10108;50.142;8.724;2023-09-07T02:32:11;18.10;99.90
19892;DHT22;10108;50.142;8.724;2023-09-07T02:34:37;18.10;99.90
19892;DHT22;10108;50.142;8.724;2023-09-07T02:37:03;18.10;99.90
19892;DHT22;10108;50.142;8.724;2023-09-07T02:39:30;18.00;99.90
19892;DHT22;10108;50.142;8.724;2023-09-07T02:41:56;18.10;99.90
19892;DHT22;10108;50.142;8.724;2023-09-07T02:44:22;18.10;99.90
19892;DHT22;10108;50.142;8.724;2023-09-07T02:46:48;18.00;99.90
19892;DHT22;10108;50.142;8.724;2023-09-07T02:49:15;18.00;99.90
19892;DHT22;10108;50.142;8.724;2023-09-07T02:51:41;18.00;99.90
19892;DHT22;10108;50.142;8.724;2023-09-07T02:54:07;18.00;99.90
19892;DHT22;10108;50.142;8.724;2023-09-07T02:56:33;18.00;99.90
19892;DHT22;10108;50.142;8.724;2023-09-07T02:59:00;18.00;99.90
19892;DHT22;10108;50.142;8.724;2023-09-07T03:01:26;18.00;99.90
19892;DHT22;10108;50.142;8.724;2023-09-07T03:03:52;18.00;99.90
19892;DHT22;10108;50.142;8.724;2023-09-07T03:06:19;18.00;99.90
19892;DHT22;10108;50.142;8.724;2023-09-07T03:08:49;18.00;99.90
19892;DHT22;10108;50.142;8.724;2023-09-07T03:11:15;18.00;99.90
19892;DHT22;10108;50.142;8.724;2023-09-07T03:13:42;18.00;99.90
19892;DHT22;10108;50.142;8.724;2023-09-07T03:16:09;18.00;99.90
19892;DHT22;10108;50.142;8.724;2023-09-07T03:18:35;18.00;99.90
19892;DHT22;10108;50.142;8.724;2023-09-07T03:21:02;18.00;99.90
19892;DHT22;10108;50.142;8.724;2023-09-07T03:23:29;18.00;99.90
19892;DHT22;10108;50.142;8.724;2023-09-07T03:25:57;18.00;99.90
19892;DHT22;10108;50.142;8.724;2023-09-07T03:28:24;18.00;99.90
19892;DHT22;10108;50.142;8.724;2023-09-07T03:30:54;18.00;99.90
19892;DHT22;10108;50.142;8.724;2023-09-07T03:33:21;18.00;99.90
19892;DHT22;10108;50.142;8.724;2023-09-07T03:35:47;18.00;99.90
19892;DHT22;10108;50.142;8.724;2023-09-07T03:38:14;18.00;99.90
19892;DHT22;10108;50.142;8.724;2023-09-07T03:40:40;18.00;99.90
19892;DHT22;10108;50.142;8.724;2023-09-07T03:43:07;18.00;99.90
19892;DHT22;10108;50.142;8.724;2023-09-07T03:45:33;18.00;99.90
19892;DHT22;10108;50.142;8.724;2023-09-07T03:48:00;18.00;99.90
19892;DHT22;10108;50.142;8.724;2023-09-07T03:50:26;17.90;99.90
19892;DHT22;10108;50.142;8.724;2023-09-07T03:52:52;17.90;99.90
19892;DHT22;10108;50.142;8.724;2023-09-07T03:55:18;17.90;99.90
19892;DHT22;10108;50.142;8.724;2023-09-07T03:57:45;17.90;99.90
19892;DHT22;10108;50.142;8.724;2023-09-07T04:00:12;17.90;99.90
19892;DHT22;10108;50.142;8.724;2023-09-07T04:02:44;17.90;99.90
19892;DHT22;10108;50.142;8.724;2023-09-07T04:05:10;17.90;99.90
19892;DHT22;10108;50.142;8.724;2023-09-07T04:07:37;17.90;99.90
19892;DHT22;10108;50.142;8.724;2023-09-07T04:10:05;17.90;99.90
19892;DHT22;10108;50.142;8.724;2023-09-07T04:12:31;17.90;99.90
19892;DHT22;10108;50.142;8.724;2023-09-07T04:15:03;17.80;99.90
19892;DHT22;10108;50.142;8.724;2023-09-07T04:17:29;17.80;99.90
19892;DHT22;10108;50.142;8.724;2023-09-07T04:19:56;17.80;99.90
19892;DHT22;10108;50.142;8.724;2023-09-07T04:22:22;17.80;99.90
19892;DHT22;10108;50.142;8.724;2023-09-07T04:24:48;17.80;99.90
19892;DHT22;10108;50.142;8.724;2023-09-07T04:27:15;17.80;99.90
19892;DHT22;10108;50.142;8.724;2023-09-07T04:29:41;17.80;99.90
19892;DHT22;10108;50.142;8.724;2023-09-07T04:32:08;17.80;99.90
19892;DHT22;10108;50.142;8.724;2023-09-07T04:34:34;17.80;99.90
19892;DHT22;10108;50.142;8.724;2023-09-07T04:37:01;17.80;99.90
19892;DHT22;10108;50.142;8.724;2023-09-07T04:39:27;17.80;99.90
19892;DHT22;10108;50.142;8.724;2023-09-07T04:41:53;17.70;99.90
19892;DHT22;10108;50.142;8.724;2023-09-07T04:44:19;17.70;99.90
19892;DHT22;10108;50.142;8.724;2023-09-07T04:46:46;17.70;99.90
19892;DHT22;10108;50.142;8.724;2023-09-07T04:49:12;17.70;99.90
19892;DHT22;10108;50.142;8.724;2023-09-07T04:51:38;17.70;99.90
19892;DHT22;10108;50.142;8.724;2023-09-07T04:54:04;17.70;99.90
19892;DHT22;10108;50.142;8.724;2023-09-07T04:56:31;17.70;99.90
19892;DHT22;10108;50.142;8.724;2023-09-07T04:58:57;17.70;99.90
19892;DHT22;10108;50.142;8.724;2023-09-07T05:01:24;17.70;99.90
19892;DHT22;10108;50.142;8.724;2023-09-07T05:03:51;17.70;99.90
19892;DHT22;10108;50.142;8.724;2023-09-07T05:06:19;17.70;99.90
19892;DHT22;10108;50.142;8.724;2023-09-07T05:08:45;17.70;99.90
19892;DHT22;10108;50.142;8.724;2023-09-07T05:11:11;17.70;99.90
19892;DHT22;10108;50.142;8.724;2023-09-07T05:13:38;17.60;99.90
19892;DHT22;10108;50.142;8.724;2023-09-07T05:16:04;17.70;99.90
19892;DHT22;10108;50.142;8.724;2023-09-07T05:18:32;17.60;99.90
19892;DHT22;10108;50.142;8.724;2023-09-07T05:20:58;17.60;99.90
19892;DHT22;10108;50.142;8.724;2023-09-07T05:23:24;17.60;99.90
19892;DHT22;10108;50.142;8.724;2023-09-07T05:25:54;17.60;99.90
19892;DHT22;10108;50.142;8.724;2023-09-07T05:28:22;17.60;99.90
19892;DHT22;10108;50.142;8.724;2023-09-07T05:30:50;17.60;99.90
19892;DHT22;10108;50.142;8.724;2023-09-07T05:33:17;17.60;99.90
19892;DHT22;10108;50.142;8.724;2023-09-07T05:35:44;17.60;99.90
19892;DHT22;10108;50.142;8.724;2023-09-07T05:38:12;17.70;99.90
19892;DHT22;10108;50.142;8.724;2023-09-07T05:40:40;17.70;99.90
19892;DHT22;10108;50.142;8.724;2023-09-07T05:43:06;17.70;99.90
19892;DHT22;10108;50.142;8.724;2023-09-07T05:45:35;17.70;99.90
19892;DHT22;10108;50.142;8.724;2023-09-07T05:48:06;17.70;99.90
19892;DHT22;10108;50.142;8.724;2023-09-07T05:50:35;17.70;99.90
19892;DHT22;10108;50.142;8.724;2023-09-07T05:53:02;17.70;99.90
19892;DHT22;10108;50.142;8.724;2023-09-07T05:55:29;17.70;99.90
19892;DHT22;10108;50.142;8.724;2023-09-07T05:57:56;17.70;99.90
19892;DHT22;10108;50.142;8.724;2023-09-07T06:00:22;17.70;99.90
19892;DHT22;10108;50.142;8.724;2023-09-07T06:02:50;17.80;99.90
19892;DHT22;10108;50.142;8.724;2023-09-07T06:05:17;17.80;99.90
19892;DHT22;10108;50.142;8.724;2023-09-07T06:07:44;17.80;99.90
19892;DHT22;10108;50.142;8.724;2023-09-07T06:10:12;17.90;99.90
19892;DHT22;10108;50.142;8.724;2023-09-07T06:12:38;17.90;99.90
19892;DHT22;10108;50.142;8.724;2023-09-07T06:15:05;18.00;99.90
19892;DHT22;10108;50.142;8.724;2023-09-07T06:17:32;18.00;99.90
19892;DHT22;10108;50.142;8.724;2023-09-07T06:19:58;18.00;99.90
19892;DHT22;10108;50.142;8.724;2023-09-07T06:22:25;18.10;99.90
19892;DHT22;10108;50.142;8.724;2023-09-07T06:24:52;18.10;99.90
19892;DHT22;10108;50.142;8.724;2023-09-07T06:27:19;18.10;99.90
19892;DHT22;10108;50.142;8.724;2023-09-07T06:29:45;18.10;99.90
19892;DHT22;10108;50.142;8.724;2023-09-07T06:32:13;18.20;99.90
19892;DHT22;10108;50.142;8.724;2023-09-07T06:34:39;18.20;99.90
19892;DHT22;10108;50.142;8.724;2023-09-07T06:37:06;18.30;99.90
19892;DHT22;10108;50.142;8.724;2023-09-07T06:39:32;18.30;99.90
19892;DHT22;10108;50.142;8.724;2023-09-07T06:41:59;18.40;99.90
19892;DHT22;10108;50.142;8.724;2023-09-07T06:44:30;18.40;99.90
19892;DHT22;10108;50.142;8.724;2023-09-07T06:46:56;18.40;99.90
19892;DHT22;10108;50.142;8.724;2023-09-07T06:49:22;18.40;99.90
19892;DHT22;10108;50.142;8.724;2023-09-07T06:51:49;18.50;99.90
19892;DHT22;10108;50.142;8.724;2023-09-07T06:54:15;18.50;99.90
19892;DHT22;10108;50.142;8.724;2023-09-07T06:56:42;18.50;99.90
19892;DHT22;10108;50.142;8.724;2023-09-07T06:59:08;18.50;99.90
19892;DHT22;10108;50.142;8.724;2023-09-07T07:01:34;18.60;99.90
19892;DHT22;10108;50.142;8.724;2023-09-07T07:04:02;18.60;99.90
19892;DHT22;10108;50.142;8.724;2023-09-07T07:06:28;18.60;99.90
19892;DHT22;10108;50.142;8.724;2023-09-07T07:08:55;18.60;99.90
19892;DHT22;10108;50.142;8.724;2023-09-07T07:11:21;18.70;99.90
19892;DHT22;10108;50.142;8.724;2023-09-07T07:13:47;18.70;99.90
19892;DHT22;10108;50.142;8.724;2023-09-07T07:16:13;18.70;99.90
19892;DHT22;10108;50.142;8.724;2023-09-07T07:18:40;18.80;99.90
19892;DHT22;10108;50.142;8.724;2023-09-07T07:21:06;18.80;99.90
19892;DHT22;10108;50.142;8.724;2023-09-07T07:23:33;18.80;99.90
19892;DHT22;10108;50.142;8.724;2023-09-07T07:25:59;18.80;99.90
19892;DHT22;10108;50.142;8.724;2023-09-07T07:28:26;18.80;99.90
19892;DHT22;10108;50.142;8.724;2023-09-07T07:30:52;18.80;99.90
19892;DHT22;10108;50.142;8.724;2023-09-07T07:33:20;18.80;99.90
19892;DHT22;10108;50.142;8.724;2023-09-07T07:35:47;18.80;99.90
19892;DHT22;10108;50.142;8.724;2023-09-07T07:38:14;18.90;99.90
19892;DHT22;10108;50.142;8.724;2023-09-07T07:40:42;18.90;99.90
19892;DHT22;10108;50.142;8.724;2023-09-07T07:43:09;18.90;99.90
19892;DHT22;10108;50.142;8.724;2023-09-07T07:45:36;18.90;99.90
19892;DHT22;10108;50.142;8.724;2023-09-07T07:48:05;18.90;99.90
19892;DHT22;10108;50.142;8.724;2023-09-07T07:50:42;18.90;99.90
19892;DHT22;10108;50.142;8.724;2023-09-07T07:53:12;18.90;99.90
19892;DHT22;10108;50.142;8.724;2023-09-07T07:55:39;19.00;99.90
19892;DHT22;10108;50.142;8.724;2023-09-07T07:58:09;19.00;99.90
19892;DHT22;10108;50.142;8.724;2023-09-07T08:00:39;19.00;99.90
19892;DHT22;10108;50.142;8.724;2023-09-07T08:03:07;19.00;99.90
19892;DHT22;10108;50.142;8.724;2023-09-07T08:05:35;19.10;99.90
19892;DHT22;10108;50.142;8.724;2023-09-07T08:08:02;19.10;99.90
19892;DHT22;10108;50.142;8.724;2023-09-07T08:10:29;19.10;99.90
19892;DHT22;10108;50.142;8.724;2023-09-07T08:12:56;19.10;99.90
19892;DHT22;10108;50.142;8.724;2023-09-07T08:15:23;19.10;99.90
19892;DHT22;10108;50.142;8.724;2023-09-07T08:17:51;19.20;99.90
19892;DHT22;10108;50.142;8.724;2023-09-07T08:20:17;19.20;99.90
19892;DHT22;10108;50.142;8.724;2023-09-07T08:22:44;19.20;99.90
19892;DHT22;10108;50.142;8.724;2023-09-07T08:25:12;19.20;99.90
19892;DHT22;10108;50.142;8.724;2023-09-07T08:27:43;19.30;99.90
19892;DHT22;10108;50.142;8.724;2023-09-07T08:30:14;19.30;99.90
19892;DHT22;10108;50.142;8.724;2023-09-07T08:32:45;19.30;99.90
19892;DHT22;10108;50.142;8.724;2023-09-07T08:35:12;19.30;99.90
19892;DHT22;10108;50.142;8.724;2023-09-07T08:37:43;19.30;99.90
19892;DHT22;10108;50.142;8.724;2023-09-07T08:40:09;19.40;99.90
19892;DHT22;10108;50.142;8.724;2023-09-07T08:42:37;19.40;99.90
19892;DHT22;10108;50.142;8.724;2023-09-07T08:45:04;19.40;99.90
19892;DHT22;10108;50.142;8.724;2023-09-07T08:47:34;19.40;99.90
19892;DHT22;10108;50.142;8.724;2023-09-07T08:50:02;19.40;99.90
19892;DHT22;10108;50.142;8.724;2023-09-07T08:52:28;19.50;99.90
19892;DHT22;10108;50.142;8.724;2023-09-07T08:54:56;19.40;99.90
19892;DHT22;10108;50.142;8.724;2023-09-07T08:57:25;19.40;99.90
19892;DHT22;10108;50.142;8.724;2023-09-07T08:59:53;19.50;99.90
19892;DHT22;10108;50.142;8.724;2023-09-07T09:02:19;19.40;99.90
19892;DHT22;10108;50.142;8.724;2023-09-07T09:04:46;19.50;99.90
19892;DHT22;10108;50.142;8.724;2023-09-07T09:07:12;19.40;99.90
19892;DHT22;10108;50.142;8.724;2023-09-07T09:09:39;19.50;99.90
19892;DHT22;10108;50.142;8.724;2023-09-07T09:12:12;19.50;99.90
19892;DHT22;10108;50.142;8.724;2023-09-07T09:14:43;19.50;99.90
19892;DHT22;10108;50.142;8.724;2023-09-07T09:17:14;19.60;99.90
19892;DHT22;10108;50.142;8.724;2023-09-07T09:19:41;19.60;99.90
19892;DHT22;10108;50.142;8.724;2023-09-07T09:22:07;19.60;99.90
19892;DHT22;10108;50.142;8.724;2023-09-07T09:24:34;19.60;99.90
19892;DHT22;10108;50.142;8.724;2023-09-07T09:27:01;19.70;99.90
19892;DHT22;10108;50.142;8.724;2023-09-07T09:29:27;19.70;99.90
19892;DHT22;10108;50.142;8.724;2023-09-07T09:31:53;19.70;99.90
19892;DHT22;10108;50.142;8.724;2023-09-07T09:34:21;19.70;99.90
19892;DHT22;10108;50.142;8.724;2023-09-07T09:36:47;19.70;99.90
19892;DHT22;10108;50.142;8.724;2023-09-07T09:39:23;19.70;99.90
19892;DHT22;10108;50.142;8.724;2023-09-07T09:41:50;19.70;99.90
19892;DHT22;10108;50.142;8.724;2023-09-07T09:44:17;19.70;99.90
19892;DHT22;10108;50.142;8.724;2023-09-07T09:46:47;19.80;99.90
19892;DHT22;10108;50.142;8.724;2023-09-07T09:49:14;19.80;99.90
19892;DHT22;10108;50.142;8.724;2023-09-07T09:51:42;19.80;99.90
19892;DHT22;10108;50.142;8.724;2023-09-07T09:54:09;19.80;99.90
19892;DHT22;10108;50.142;8.724;2023-09-07T09:56:36;19.80;99.90
19892;DHT22;10108;50.142;8.724;2023-09-07T09:59:02;19.80;99.90
19892;DHT22;10108;50.142;8.724;2023-09-07T10:01:28;19.90;99.90
19892;DHT22;10108;50.142;8.724;2023-09-07T10:03:56;19.90;99.90
19892;DHT22;10108;50.142;8.724;2023-09-07T10:06:25;19.90;99.90
19892;DHT22;10108;50.142;8.724;2023-09-07T10:09:03;19.90;99.90
19892;DHT22;10108;50.142;8.724;2023-09-07T10:11:34;19.90;99.90
19892;DHT22;10108;50.142;8.724;2023-09-07T10:14:02;19.90;99.90
19892;DHT22;10108;50.142;8.724;2023-09-07T10:16:44;19.90;99.90
19892;DHT22;10108;50.142;8.724;2023-09-07T10:19:28;19.90;99.90
19892;DHT22;10108;50.142;8.724;2023-09-07T10:21:55;19.90;99.90
19892;DHT22;10108;50.142;8.724;2023-09-07T10:24:32;19.90;99.90
19892;DHT22;10108;50.142;8.724;2023-09-07T10:27:06;20.00;99.90
19892;DHT22;10108;50.142;8.724;2023-09-07T10:29:50;20.00;99.90
19892;DHT22;10108;50.142;8.724;2023-09-07T10:32:16;20.00;99.90
19892;DHT22;10108;50.142;8.724;2023-09-07T10:34:43;20.00;99.90
19892;DHT22;10108;50.142;8.724;2023-09-07T10:37:13;20.00;99.90
19892;DHT22;10108;50.142;8.724;2023-09-07T10:39:41;20.00;99.90
19892;DHT22;10108;50.142;8.724;2023-09-07T10:42:22;20.00;99.90
19892;DHT22;10108;50.142;8.724;2023-09-07T10:44:49;20.00;99.90
19892;DHT22;10108;50.142;8.724;2023-09-07T10:47:16;20.00;99.90
19892;DHT22;10108;50.142;8.724;2023-09-07T10:49:42;20.00;99.90
19892;DHT22;10108;50.142;8.724;2023-09-07T10:52:09;20.10;99.90
19892;DHT22;10108;50.142;8.724;2023-09-07T10:54:35;20.10;99.90
19892;DHT22;10108;50.142;8.724;2023-09-07T10:57:09;20.20;99.90
19892;DHT22;10108;50.142;8.724;2023-09-07T10:59:36;20.20;99.90
19892;DHT22;10108;50.142;8.724;2023-09-07T11:02:06;20.30;99.90
19892;DHT22;10108;50.142;8.724;2023-09-07T11:04:32;20.30;99.90
19892;DHT22;10108;50.142;8.724;2023-09-07T11:06:59;20.30;99.90
19892;DHT22;10108;50.142;8.724;2023-09-07T11:09:25;20.30;99.90
19892;DHT22;10108;50.142;8.724;2023-09-07T11:11:51;20.30;99.90
19892;DHT22;10108;50.142;8.724;2023-09-07T11:14:21;20.30;99.90
19892;DHT22;10108;50.142;8.724;2023-09-07T11:16:47;20.20;99.90
19892;DHT22;10108;50.142;8.724;2023-09-07T11:19:14;20.30;99.90
19892;DHT22;10108;50.142;8.724;2023-09-07T11:21:41;20.30;99.90
19892;DHT22;10108;50.142;8.724;2023-09-07T11:24:08;20.30;99.90
19892;DHT22;10108;50.142;8.724;2023-09-07T11:26:44;20.30;99.90
19892;DHT22;10108;50.142;8.724;2023-09-07T11:29:18;20.30;99.90
19892;DHT22;10108;50.142;8.724;2023-09-07T11:31:47;20.30;99.90
19892;DHT22;10108;50.142;8.724;2023-09-07T11:34:14;20.30;99.90
19892;DHT22;10108;50.142;8.724;2023-09-07T11:36:41;20.30;99.90
19892;DHT22;10108;50.142;8.724;2023-09-07T11:39:07;20.30;99.90
19892;DHT22;10108;50.142;8.724;2023-09-07T11:41:41;20.40;99.90
19892;DHT22;10108;50.142;8.724;2023-09-07T11:44:08;20.30;99.90
19892;DHT22;10108;50.142;8.724;2023-09-07T11:46:34;20.40;99.90
19892;DHT22;10108;50.142;8.724;2023-09-07T11:49:01;20.40;99.90
19892;DHT22;10108;50.142;8.724;2023-09-07T11:51:27;20.40;99.90
19892;DHT22;10108;50.142;8.724;2023-09-07T11:53:53;20.40;99.90
19892;DHT22;10108;50.142;8.724;2023-09-07T11:56:19;20.50;99.90
19892;DHT22;10108;50.142;8.724;2023-09-07T11:58:45;20.50;99.90
19892;DHT22;10108;50.142;8.724;2023-09-07T12:01:11;20.50;99.90
19892;DHT22;10108;50.142;8.724;2023-09-07T12:03:37;20.50;99.90
19892;DHT22;10108;50.142;8.724;2023-09-07T12:06:04;20.50;99.90
19892;DHT22;10108;50.142;8.724;2023-09-07T12:08:30;20.50;99.90
19892;DHT22;10108;50.142;8.724;2023-09-07T12:10:59;20.60;99.90
19892;DHT22;10108;50.142;8.724;2023-09-07T12:13:25;20.60;99.90
19892;DHT22;10108;50.142;8.724;2023-09-07T12:15:52;20.60;99.90
19892;DHT22;10108;50.142;8.724;2023-09-07T12:18:18;20.60;99.90
19892;DHT22;10108;50.142;8.724;2023-09-07T12:20:44;20.60;99.90
19892;DHT22;10108;50.142;8.724;2023-09-07T12:23:10;20.50;99.90
19892;DHT22;10108;50.142;8.724;2023-09-07T12:25:36;20.50;99.90
19892;DHT22;10108;50.142;8.724;2023-09-07T12:28:03;20.50;99.90
19892;DHT22;10108;50.142;8.724;2023-09-07T12:30:32;20.50;99.90
19892;DHT22;10108;50.142;8.724;2023-09-07T12:32:58;20.50;99.90
19892;DHT22;10108;50.142;8.724;2023-09-07T12:35:25;20.50;99.90
19892;DHT22;10108;50.142;8.724;2023-09-07T12:37:51;20.50;99.90
19892;DHT22;10108;50.142;8.724;2023-09-07T12:40:17;20.50;99.90
19892;DHT22;10108;50.142;8.724;2023-09-07T12:42:45;20.60;99.90
19892;DHT22;10108;50.142;8.724;2023-09-07T12:45:12;20.60;99.90
19892;DHT22;10108;50.142;8.724;2023-09-07T12:47:40;20.60;99.90
19892;DHT22;10108;50.142;8.724;2023-09-07T12:50:06;20.60;99.90
19892;DHT22;10108;50.142;8.724;2023-09-07T12:52:33;20.60;99.90
19892;DHT22;10108;50.142;8.724;2023-09-07T12:55:03;20.60;99.90
19892;DHT22;10108;50.142;8.724;2023-09-07T12:57:29;20.60;99.90
19892;DHT22;10108;50.142;8.724;2023-09-07T12:59:55;20.60;99.90
19892;DHT22;10108;50.142;8.724;2023-09-07T13:02:22;20.60;99.90
19892;DHT22;10108;50.142;8.724;2023-09-07T13:04:48;20.60;99.90
19892;DHT22;10108;50.142;8.724;2023-09-07T13:07:14;20.70;99.90
19892;DHT22;10108;50.142;8.724;2023-09-07T13:09:43;20.70;99.90
19892;DHT22;10108;50.142;8.724;2023-09-07T13:12:09;20.70;99.90
19892;DHT22;10108;50.142;8.724;2023-09-07T13:14:35;20.70;99.90
19892;DHT22;10108;50.142;8.724;2023-09-07T13:17:01;20.70;99.90
19892;DHT22;10108;50.142;8.724;2023-09-07T13:19:27;20.70;99.90
19892;DHT22;10108;50.142;8.724;2023-09-07T13:21:55;20.70;99.90
19892;DHT22;10108;50.142;8.724;2023-09-07T13:24:21;20.80;99.90
19892;DHT22;10108;50.142;8.724;2023-09-07T13:26:50;20.80;99.90
19892;DHT22;10108;50.142;8.724;2023-09-07T13:29:16;20.80;99.90
19892;DHT22;10108;50.142;8.724;2023-09-07T13:31:43;20.80;99.90
19892;DHT22;10108;50.142;8.724;2023-09-07T13:34:09;20.80;99.90
19892;DHT22;10108;50.142;8.724;2023-09-07T13:36:35;20.80;99.90
19892;DHT22;10108;50.142;8.724;2023-09-07T13:39:01;20.80;99.90
19892;DHT22;10108;50.142;8.724;2023-09-07T13:41:28;20.70;99.90
19892;DHT22;10108;50.142;8.724;2023-09-07T13:43:54;20.80;99.90
19892;DHT22;10108;50.142;8.724;2023-09-07T13:46:20;20.80;99.90
19892;DHT22;10108;50.142;8.724;2023-09-07T13:48:46;20.80;99.90
19892;DHT22;10108;50.142;8.724;2023-09-07T13:51:12;20.80;99.90
19892;DHT22;10108;50.142;8.724;2023-09-07T13:53:38;20.80;99.90
19892;DHT22;10108;50.142;8.724;2023-09-07T13:56:04;20.80;99.90
19892;DHT22;10108;50.142;8.724;2023-09-07T13:58:30;20.80;99.90
19892;DHT22;10108;50.142;8.724;2023-09-07T14:00:57;20.80;99.90
19892;DHT22;10108;50.142;8.724;2023-09-07T14:03:23;20.80;99.90
19892;DHT22;10108;50.142;8.724;2023-09-07T14:05:50;20.80;99.90
19892;DHT22;10108;50.142;8.724;2023-09-07T14:08:16;20.80;99.90
19892;DHT22;10108;50.142;8.724;2023-09-07T14:10:43;20.90;99.90
19892;DHT22;10108;50.142;8.724;2023-09-07T14:13:09;20.90;99.90
19892;DHT22;10108;50.142;8.724;2023-09-07T14:15:35;20.90;99.90
19892;DHT22;10108;50.142;8.724;2023-09-07T14:18:01;20.90;99.90
19892;DHT22;10108;50.142;8.724;2023-09-07T14:20:28;20.90;99.90
19892;DHT22;10108;50.142;8.724;2023-09-07T14:22:55;20.80;99.90
19892;DHT22;10108;50.142;8.724;2023-09-07T14:25:24;20.90;99.90
19892;DHT22;10108;50.142;8.724;2023-09-07T14:27:50;21.00;99.90
19892;DHT22;10108;50.142;8.724;2023-09-07T14:30:16;21.00;99.90
19892;DHT22;10108;50.142;8.724;2023-09-07T14:32:44;21.00;99.90
19892;DHT22;10108;50.142;8.724;2023-09-07T14:35:13;21.00;99.90
19892;DHT22;10108;50.142;8.724;2023-09-07T14:37:40;21.00;99.90
19892;DHT22;10108;50.142;8.724;2023-09-07T14:40:07;21.00;99.90
19892;DHT22;10108;50.142;8.724;2023-09-07T14:42:34;20.90;99.90
19892;DHT22;10108;50.142;8.724;2023-09-07T14:45:00;20.90;99.90
19892;DHT22;10108;50.142;8.724;2023-09-07T14:47:29;20.90;99.90
19892;DHT22;10108;50.142;8.724;2023-09-07T14:49:55;20.90;99.90
19892;DHT22;10108;50.142;8.724;2023-09-07T14:52:22;20.90;99.90
19892;DHT22;10108;50.142;8.724;2023-09-07T14:54:50;21.00;99.90
19892;DHT22;10108;50.142;8.724;2023-09-07T14:57:16;21.00;99.90
19892;DHT22;10108;50.142;8.724;2023-09-07T14:59:42;21.00;99.90
19892;DHT22;10108;50.142;8.724;2023-09-07T15:02:09;21.10;99.90
19892;DHT22;10108;50.142;8.724;2023-09-07T15:04:35;21.00;99.90
19892;DHT22;10108;50.142;8.724;2023-09-07T15:07:01;21.10;99.90
19892;DHT22;10108;50.142;8.724;2023-09-07T15:09:28;21.10;99.90
19892;DHT22;10108;50.142;8.724;2023-09-07T15:11:54;21.00;99.90
19892;DHT22;10108;50.142;8.724;2023-09-07T15:14:20;21.00;99.90
19892;DHT22;10108;50.142;8.724;2023-09-07T15:16:46;21.10;99.90
19892;DHT22;10108;50.142;8.724;2023-09-07T15:19:12;21.00;99.90
19892;DHT22;10108;50.142;8.724;2023-09-07T15:21:38;21.00;99.90
19892;DHT22;10108;50.142;8.724;2023-09-07T15:24:05;21.00;99.90
19892;DHT22;10108;50.142;8.724;2023-09-07T15:26:44;21.00;99.90
19892;DHT22;10108;50.142;8.724;2023-09-07T15:29:11;21.00;99.90